createdAt,value
2023-05-17T00:01:56.161Z,3.90
2023-05-17T00:04:23.171Z,4.10
2023-05-17T00:06:50.155Z,4.10
2023-05-17T00:09:17.095Z,4.10
2023-05-17T00:11:45.313Z,4.40
2023-05-17T00:14:12.822Z,4.70
2023-05-17T00:16:39.708Z,3.70
2023-05-17T00:19:07.968Z,3.90
2023-05-17T00:21:35.546Z,4.10
2023-05-17T00:24:02.391Z,3.90
2023-05-17T00:26:29.720Z,4.00
2023-05-17T00:28:56.540Z,4.00
2023-05-17T00:31:23.404Z,4.80
2023-05-17T00:33:50.920Z,4.10
2023-05-17T00:36:17.778Z,4.00
2023-05-17T00:38:44.857Z,4.00
2023-05-17T00:41:12.601Z,4.00
2023-05-17T00:43:39.603Z,4.10
2023-05-17T00:46:06.708Z,4.10
2023-05-17T00:48:36.900Z,4.00
2023-05-17T00:51:03.822Z,4.00
2023-05-17T00:53:31.625Z,3.90
2023-05-17T00:55:58.573Z,4.00
2023-05-17T00:58:26.657Z,4.20
2023-05-17T01:00:53.557Z,4.20
2023-05-17T01:03:22.961Z,4.30
2023-05-17T01:05:51.740Z,4.30
2023-05-17T01:08:18.637Z,4.10
2023-05-17T01:10:58.490Z,4.10
2023-05-17T01:13:33.434Z,4.10
2023-05-17T01:16:07.996Z,4.30
2023-05-17T01:18:39.585Z,4.30
2023-05-17T01:21:16.333Z,4.50
2023-05-17T01:23:54.099Z,4.30
2023-05-17T01:26:50.290Z,4.20
2023-05-17T01:29:17.269Z,4.20
2023-05-17T01:31:44.420Z,4.70
2023-05-17T01:34:11.522Z,4.20
2023-05-17T01:36:42.420Z,4.30
2023-05-17T01:39:09.262Z,4.30
2023-05-17T01:41:42.599Z,4.90
2023-05-17T01:44:26.484Z,4.40
2023-05-17T01:46:58.460Z,4.40
2023-05-17T01:49:30.512Z,4.20
2023-05-17T01:54:30.999Z,4.30
2023-05-17T01:56:58.571Z,4.40
2023-05-17T01:59:25.605Z,4.50
2023-05-17T02:01:55.439Z,4.00
2023-05-17T02:04:22.439Z,4.70
2023-05-17T02:06:49.609Z,4.30
2023-05-17T02:09:17.481Z,4.40
2023-05-17T02:11:44.909Z,4.40
2023-05-17T02:14:11.898Z,4.90
2023-05-17T02:16:41.826Z,4.30
2023-05-17T02:19:08.720Z,4.30
2023-05-17T02:21:35.697Z,4.10
2023-05-17T02:24:03.288Z,4.60
2023-05-17T02:26:31.237Z,4.00
2023-05-17T02:41:12.745Z,4.70
2023-05-17T02:43:39.955Z,4.40
2023-05-17T02:46:07.087Z,4.60
2023-05-17T02:48:34.130Z,4.70
2023-05-17T02:51:01.207Z,4.20
2023-05-17T02:53:28.353Z,4.40
2023-05-17T02:55:58.320Z,4.10
2023-05-17T02:58:26.073Z,4.50
2023-05-17T03:00:53.177Z,4.50
2023-05-17T03:03:26.205Z,4.40
2023-05-17T03:05:53.363Z,4.90
2023-05-17T03:08:22.015Z,4.50
2023-05-17T03:10:49.079Z,4.60
2023-05-17T03:13:16.601Z,4.80
2023-05-17T03:15:43.779Z,4.50
2023-05-17T03:18:11.057Z,4.70
2023-05-17T03:20:40.052Z,4.50
2023-05-17T03:23:07.246Z,4.80
2023-05-17T03:25:38.542Z,4.20
2023-05-17T03:28:06.326Z,4.50
2023-05-17T03:30:33.490Z,4.50
2023-05-17T03:33:00.792Z,4.70
2023-05-17T03:35:28.200Z,4.80
2023-05-17T03:37:56.376Z,4.60
2023-05-17T03:40:24.017Z,4.20
2023-05-17T03:42:52.003Z,4.40
2023-05-17T03:45:19.923Z,4.70
2023-05-17T03:47:47.085Z,4.70
2023-05-17T03:50:14.696Z,4.60
2023-05-17T03:52:43.828Z,4.30
2023-05-17T03:55:10.876Z,4.80
2023-05-17T03:57:38.233Z,5.00
2023-05-17T04:00:12.638Z,4.70
2023-05-17T04:02:42.586Z,4.90
2023-05-17T04:05:09.967Z,4.80
2023-05-17T04:07:37.198Z,4.00
2023-05-17T04:10:04.471Z,4.50
2023-05-17T04:12:31.612Z,4.20
2023-05-17T04:14:59.122Z,4.40
2023-05-17T04:17:26.377Z,4.40
2023-05-17T04:19:53.665Z,4.60
2023-05-17T04:22:21.561Z,4.50
2023-05-17T04:24:49.774Z,4.50
2023-05-17T04:27:17.175Z,4.40
2023-05-17T04:29:44.371Z,4.20
2023-05-17T04:32:11.553Z,4.60
2023-05-17T04:34:38.753Z,4.50
2023-05-17T04:37:06.215Z,4.10
2023-05-17T04:39:34.088Z,4.40
2023-05-17T04:42:01.090Z,4.40
2023-05-17T04:44:28.322Z,4.30
2023-05-17T04:46:55.977Z,4.40
2023-05-17T04:49:25.303Z,4.60
2023-05-17T04:51:52.789Z,3.90
2023-05-17T04:54:20.198Z,4.40
2023-05-17T04:56:47.260Z,3.90
2023-05-17T04:59:18.612Z,3.90
2023-05-17T05:01:46.009Z,4.10
2023-05-17T05:04:13.136Z,4.50
2023-05-17T05:06:42.079Z,4.30
2023-05-17T05:09:09.955Z,4.60
2023-05-17T05:11:37.823Z,4.60
2023-05-17T05:14:05.397Z,4.60
2023-05-17T05:16:32.580Z,3.90
2023-05-17T05:18:59.908Z,4.10
2023-05-17T05:21:27.448Z,4.00
2023-05-17T05:23:55.165Z,4.50
2023-05-17T05:26:22.223Z,4.50
2023-05-17T05:28:49.847Z,4.10
2023-05-17T05:31:17.021Z,4.20
2023-05-17T05:33:50.275Z,4.60
2023-05-17T05:36:17.550Z,3.90
2023-05-17T05:38:44.617Z,3.90
2023-05-17T05:41:11.688Z,3.80
2023-05-17T05:43:41.755Z,3.80
2023-05-17T05:46:08.863Z,3.90
2023-05-17T05:48:39.632Z,4.20
2023-05-17T05:51:07.547Z,4.00
2023-05-17T05:53:36.946Z,4.00
2023-05-17T05:56:04.783Z,4.10
2023-05-17T05:58:32.165Z,4.30
2023-05-17T06:01:00.453Z,4.10
2023-05-17T06:03:27.505Z,4.00
2023-05-17T06:05:55.876Z,4.00
2023-05-17T06:08:22.941Z,4.00
2023-05-17T06:10:50.035Z,4.00
2023-05-17T06:13:17.092Z,3.90
2023-05-17T06:15:44.151Z,3.90
2023-05-17T06:18:11.277Z,4.70
2023-05-17T06:20:38.318Z,4.30
2023-05-17T06:23:06.071Z,3.80
2023-05-17T06:25:33.738Z,4.30
2023-05-17T06:28:03.118Z,4.20
2023-05-17T06:30:31.324Z,4.40
2023-05-17T06:32:58.633Z,3.80
2023-05-17T06:35:26.144Z,3.60
2023-05-17T06:37:53.440Z,4.30
2023-05-17T06:40:20.524Z,3.40
2023-05-17T06:42:47.559Z,3.70
2023-05-17T06:45:14.707Z,3.90
2023-05-17T06:47:41.854Z,3.70
2023-05-17T06:50:09.551Z,3.60
2023-05-17T06:52:36.809Z,3.90
2023-05-17T06:55:04.033Z,4.00
2023-05-17T06:57:31.217Z,4.00
2023-05-17T06:59:59.714Z,3.90
2023-05-17T07:02:26.824Z,4.60
2023-05-17T07:04:53.993Z,3.90
2023-05-17T07:07:21.420Z,3.60
2023-05-17T07:09:48.466Z,4.00
2023-05-17T07:12:15.573Z,4.60
2023-05-17T07:14:42.642Z,4.00
2023-05-17T07:17:11.834Z,4.00
2023-05-17T07:19:39.111Z,3.70
2023-05-17T07:22:06.711Z,4.30
2023-05-17T07:24:36.033Z,3.70
2023-05-17T07:27:03.135Z,4.00
2023-05-17T07:29:30.224Z,4.00
2023-05-17T07:31:57.638Z,4.20
2023-05-17T07:34:24.824Z,4.20
2023-05-17T07:36:51.880Z,3.20
2023-05-17T07:39:20.236Z,5.40
2023-05-17T07:41:47.342Z,4.10
2023-05-17T07:44:14.403Z,28.30
2023-05-17T07:46:41.677Z,7.60
2023-05-17T07:49:08.984Z,3.80
2023-05-17T07:51:36.749Z,3.30
2023-05-17T07:54:06.882Z,3.40
2023-05-17T07:56:34.001Z,3.10
2023-05-17T07:59:01.106Z,3.70
2023-05-17T08:01:28.179Z,3.60
2023-05-17T08:03:55.451Z,3.40
2023-05-17T08:06:22.571Z,3.30
2023-05-17T08:08:49.743Z,3.20
2023-05-17T08:11:17.081Z,3.10
2023-05-17T08:13:44.596Z,3.30
2023-05-17T08:16:14.563Z,3.10
2023-05-17T08:18:43.754Z,2.80
2023-05-17T08:21:11.714Z,3.50
2023-05-17T08:23:39.470Z,2.80
2023-05-17T08:26:06.987Z,2.70
2023-05-17T08:28:34.284Z,3.20
2023-05-17T08:31:01.465Z,3.20
2023-05-17T08:33:28.784Z,3.10
2023-05-17T08:35:58.064Z,3.20
2023-05-17T08:38:25.143Z,2.90
2023-05-17T08:40:55.469Z,2.70
2023-05-17T08:43:24.676Z,2.50
2023-05-17T08:45:53.228Z,2.70
2023-05-17T08:48:20.671Z,2.90
2023-05-17T08:50:48.429Z,2.60
2023-05-17T08:53:15.558Z,2.80
2023-05-17T08:55:45.551Z,3.00
2023-05-17T08:58:12.679Z,11.30
2023-05-17T09:00:39.716Z,7.10
2023-05-17T09:03:07.012Z,4.00
2023-05-17T09:05:34.205Z,4.00
2023-05-17T09:08:01.509Z,7.10
2023-05-17T09:10:31.007Z,4.70
2023-05-17T09:12:58.212Z,5.20
2023-05-17T09:15:27.339Z,5.00
2023-05-17T09:17:54.720Z,15.50
2023-05-17T09:20:26.164Z,8.00
2023-05-17T09:22:53.482Z,10.20
2023-05-17T09:25:21.883Z,14.70
2023-05-17T09:27:48.945Z,6.90
2023-05-17T09:30:16.108Z,4.30
2023-05-17T09:32:46.602Z,4.20
2023-05-17T09:35:14.269Z,6.00
2023-05-17T09:37:43.485Z,3.70
2023-05-17T09:40:10.915Z,3.70
2023-05-17T09:42:39.442Z,3.30
2023-05-17T09:45:07.023Z,3.20
2023-05-17T09:47:37.869Z,2.70
2023-05-17T09:50:06.637Z,3.90
2023-05-17T09:52:35.553Z,4.30
2023-05-17T09:55:02.701Z,3.00
2023-05-17T09:57:38.010Z,2.40
2023-05-17T10:00:13.574Z,2.50
2023-05-17T10:02:45.790Z,2.20
2023-05-17T10:05:13.312Z,2.00
2023-05-17T10:07:40.418Z,2.20
2023-05-17T10:10:08.646Z,2.30
2023-05-17T10:12:35.729Z,2.60
2023-05-17T10:15:02.845Z,2.20
2023-05-17T10:17:30.396Z,2.10
2023-05-17T10:19:58.278Z,1.90
2023-05-17T10:22:25.413Z,2.00
2023-05-17T10:24:52.554Z,2.20
2023-05-17T10:27:19.912Z,2.50
2023-05-17T10:29:49.947Z,2.10
2023-05-17T10:32:17.707Z,2.70
2023-05-17T10:34:47.530Z,2.80
2023-05-17T10:37:18.928Z,2.60
2023-05-17T10:39:47.053Z,2.40
2023-05-17T10:42:15.393Z,2.00
2023-05-17T10:44:44.567Z,2.20
2023-05-17T10:47:13.426Z,2.10
2023-05-17T10:49:42.188Z,4.00
2023-05-17T10:52:13.433Z,2.90
2023-05-17T10:57:20.135Z,2.50
2023-05-17T10:59:56.732Z,2.40
2023-05-17T11:02:24.137Z,2.40
2023-05-17T11:04:56.343Z,2.50
2023-05-17T11:07:32.600Z,2.50
2023-05-17T11:10:12.898Z,2.50
2023-05-17T11:12:48.296Z,2.60
2023-05-17T11:15:16.113Z,3.50
2023-05-17T11:17:57.292Z,8.40
2023-05-17T11:20:24.613Z,6.30
2023-05-17T11:23:02.807Z,4.60
2023-05-17T11:25:33.019Z,4.40
2023-05-17T11:28:00.323Z,4.80
2023-05-17T11:30:29.627Z,3.70
2023-05-17T11:33:11.136Z,3.50
2023-05-17T11:35:49.117Z,7.30
2023-05-17T11:38:24.854Z,5.10
2023-05-17T11:40:56.485Z,5.10
2023-05-17T11:43:25.871Z,6.90
2023-05-17T11:45:58.749Z,6.40
2023-05-17T11:48:26.750Z,6.80
2023-05-17T11:50:57.112Z,6.20
2023-05-17T11:53:28.694Z,6.70
2023-05-17T11:55:56.165Z,4.50
2023-05-17T11:58:26.846Z,3.30
2023-05-17T12:00:55.241Z,3.00
2023-05-17T12:03:23.321Z,4.80
2023-05-17T12:05:52.028Z,3.20
2023-05-17T12:08:20.171Z,4.10
2023-05-17T12:10:52.394Z,2.80
2023-05-17T12:13:19.877Z,4.00
2023-05-17T12:16:08.900Z,3.10
2023-05-17T12:18:42.545Z,2.70
2023-05-17T12:21:10.722Z,2.80
2023-05-17T12:23:43.807Z,3.00
2023-05-17T12:26:18.015Z,2.80
2023-05-17T12:28:56.562Z,2.40
2023-05-17T12:31:27.276Z,2.20
2023-05-17T12:33:54.460Z,2.40
2023-05-17T12:36:21.538Z,2.20
2023-05-17T12:38:48.625Z,2.40
2023-05-17T12:41:16.156Z,2.30
2023-05-17T12:43:44.858Z,2.30
2023-05-17T12:46:19.098Z,1.90
2023-05-17T12:48:47.068Z,2.20
2023-05-17T12:51:15.925Z,1.90
2023-05-17T12:53:53.946Z,2.10
2023-05-17T12:56:27.219Z,2.30
2023-05-17T12:59:29.029Z,2.30
2023-05-17T13:01:57.252Z,2.20
2023-05-17T13:04:34.552Z,1.80
2023-05-17T13:07:02.973Z,2.20
2023-05-17T13:12:02.598Z,3.00
2023-05-17T13:14:45.799Z,3.30
2023-05-17T13:17:24.370Z,3.60
2023-05-17T13:19:52.198Z,3.30
2023-05-17T13:22:19.357Z,3.50
2023-05-17T13:24:46.731Z,3.80
2023-05-17T13:27:13.947Z,3.60
2023-05-17T13:29:43.660Z,3.40
2023-05-17T13:34:40.327Z,3.70
2023-05-17T13:37:11.136Z,3.90
2023-05-17T13:39:39.693Z,3.70
2023-05-17T13:42:08.080Z,4.10
2023-05-17T13:44:35.214Z,3.80
2023-05-17T13:47:02.355Z,3.80
2023-05-17T13:49:29.472Z,3.50
2023-05-17T13:51:57.052Z,3.80
2023-05-17T13:54:24.184Z,4.00
2023-05-17T13:56:51.348Z,3.60
2023-05-17T13:59:18.706Z,3.40
2023-05-17T14:01:46.063Z,3.30
2023-05-17T14:04:13.530Z,3.50
2023-05-17T14:06:42.139Z,3.80
2023-05-17T14:09:09.416Z,3.30
2023-05-17T14:11:36.537Z,3.10
2023-05-17T14:14:04.479Z,3.30
2023-05-17T14:16:31.594Z,3.60
2023-05-17T14:19:01.017Z,3.60
2023-05-17T14:21:30.113Z,3.50
2023-05-17T14:23:57.347Z,3.70
2023-05-17T14:26:24.471Z,3.80
2023-05-17T14:28:52.111Z,3.70
2023-05-17T14:31:19.167Z,3.90
2023-05-17T14:33:47.778Z,3.20
2023-05-17T14:36:14.915Z,4.40
2023-05-17T14:38:42.386Z,3.40
2023-05-17T14:41:09.450Z,3.90
2023-05-17T14:43:36.851Z,3.90
2023-05-17T14:46:04.397Z,3.40
2023-05-17T14:48:34.301Z,3.40
2023-05-17T14:51:03.661Z,4.40
2023-05-17T14:53:30.995Z,4.20
2023-05-17T14:55:59.107Z,4.00
2023-05-17T14:58:26.691Z,3.80
2023-05-17T15:01:06.689Z,3.80
2023-05-17T15:03:34.652Z,3.80
2023-05-17T15:06:05.059Z,4.10
2023-05-17T15:08:34.928Z,4.40
2023-05-17T15:11:02.197Z,4.10
2023-05-17T15:13:30.241Z,3.70
2023-05-17T15:15:57.344Z,4.40
2023-05-17T15:18:24.432Z,4.60
2023-05-17T15:20:51.984Z,4.30
2023-05-17T15:23:19.009Z,4.40
2023-05-17T15:25:46.720Z,4.10
2023-05-17T15:28:14.368Z,4.10
2023-05-17T15:30:42.311Z,5.00
2023-05-17T15:33:10.162Z,4.00
2023-05-17T15:35:41.601Z,4.60
2023-05-17T15:38:08.703Z,4.00
2023-05-17T15:40:35.719Z,4.70
2023-05-17T15:43:02.819Z,4.30
2023-05-17T15:45:30.110Z,4.30
2023-05-17T15:47:57.564Z,3.90
2023-05-17T15:50:24.666Z,3.90
2023-05-17T15:52:51.762Z,3.80
2023-05-17T15:55:20.403Z,3.70
2023-05-17T15:57:48.060Z,3.70
2023-05-17T16:00:15.680Z,3.80
2023-05-17T16:02:42.951Z,3.90
2023-05-17T16:05:10.348Z,4.20
2023-05-17T16:07:37.525Z,3.70
2023-05-17T16:10:05.091Z,4.20
2023-05-17T16:12:32.200Z,4.00
2023-05-17T16:14:59.280Z,3.80
2023-05-17T16:17:26.978Z,3.90
2023-05-17T16:19:54.086Z,4.00
2023-05-17T16:22:21.736Z,3.90
2023-05-17T16:24:52.665Z,3.90
2023-05-17T16:27:20.191Z,3.90
2023-05-17T16:29:47.281Z,4.20
2023-05-17T16:32:14.387Z,4.40
2023-05-17T16:34:41.683Z,4.20
2023-05-17T16:37:08.793Z,4.30
2023-05-17T16:39:35.822Z,4.50
2023-05-17T16:42:02.837Z,4.00
2023-05-17T16:44:29.907Z,4.40
2023-05-17T16:46:57.015Z,4.70
2023-05-17T16:49:24.129Z,5.50
2023-05-17T16:51:52.423Z,4.90
2023-05-17T16:54:19.995Z,4.80
2023-05-17T16:56:47.429Z,4.90
2023-05-17T16:59:16.000Z,4.90
2023-05-17T17:01:43.432Z,4.40
2023-05-17T17:04:10.582Z,4.70
2023-05-17T17:06:38.302Z,4.50
2023-05-17T17:09:08.011Z,4.50
2023-05-17T17:11:35.499Z,4.50
2023-05-17T17:14:04.621Z,4.60
2023-05-17T17:16:32.189Z,4.10
2023-05-17T17:18:59.677Z,4.80
2023-05-17T17:21:26.816Z,4.30
2023-05-17T17:23:53.914Z,4.40
2023-05-17T17:26:22.144Z,4.30
2023-05-17T17:28:49.239Z,3.90
2023-05-17T17:31:18.432Z,3.80
2023-05-17T17:33:45.527Z,4.00
2023-05-17T17:36:12.635Z,4.40
2023-05-17T17:38:39.624Z,4.10
2023-05-17T17:41:06.758Z,4.20
2023-05-17T17:43:33.835Z,4.90
2023-05-17T17:46:01.151Z,5.30
2023-05-17T17:48:28.201Z,4.80
2023-05-17T17:50:55.825Z,5.20
2023-05-17T17:53:23.485Z,5.10
2023-05-17T17:55:50.842Z,5.00
2023-05-17T17:58:17.896Z,5.00
2023-05-17T18:00:44.907Z,5.80
2023-05-17T18:03:13.282Z,5.70
2023-05-17T18:05:40.573Z,5.80
2023-05-17T18:08:08.100Z,5.90
2023-05-17T18:10:36.024Z,6.20
2023-05-17T18:13:03.194Z,6.10
2023-05-17T18:15:30.292Z,6.40
2023-05-17T18:17:57.633Z,6.20
2023-05-17T18:20:26.664Z,6.50
2023-05-17T18:22:53.765Z,6.90
2023-05-17T18:25:21.557Z,7.00
2023-05-17T18:27:49.568Z,7.00
2023-05-17T18:30:18.594Z,7.20
2023-05-17T18:32:49.173Z,7.30
2023-05-17T18:35:16.463Z,7.40
2023-05-17T18:37:43.650Z,8.70
2023-05-17T18:40:11.415Z,9.00
2023-05-17T18:42:38.575Z,10.60
2023-05-17T18:45:07.923Z,10.20
2023-05-17T18:47:35.051Z,11.30
2023-05-17T18:50:02.393Z,11.10
2023-05-17T18:52:29.552Z,10.10
2023-05-17T18:54:56.683Z,11.10
2023-05-17T18:57:23.822Z,9.70
2023-05-17T18:59:51.017Z,9.70
2023-05-17T19:02:18.180Z,9.80
2023-05-17T19:04:45.282Z,9.00
2023-05-17T19:07:12.399Z,9.70
2023-05-17T19:09:39.524Z,9.80
2023-05-17T19:12:07.027Z,9.80
2023-05-17T19:14:34.248Z,8.80
2023-05-17T19:17:03.379Z,8.70
2023-05-17T19:19:31.481Z,8.20
2023-05-17T19:22:00.730Z,8.90
2023-05-17T19:24:28.042Z,9.90
2023-05-17T19:26:55.102Z,9.20
2023-05-17T19:29:22.487Z,9.70
2023-05-17T19:31:49.672Z,8.10
2023-05-17T19:34:16.754Z,8.20
2023-05-17T19:36:43.829Z,9.10
2023-05-17T19:39:11.111Z,8.40
2023-05-17T19:41:38.245Z,8.70
2023-05-17T19:44:06.418Z,9.80
2023-05-17T19:46:33.822Z,7.00
2023-05-17T19:49:01.175Z,7.10
2023-05-17T19:51:28.472Z,7.10
2023-05-17T19:53:55.671Z,8.10
2023-05-17T19:56:25.973Z,7.60
2023-05-17T19:58:54.204Z,7.50
2023-05-17T20:01:24.293Z,7.20
2023-05-17T20:03:52.069Z,6.80
2023-05-17T20:06:19.267Z,6.80
2023-05-17T20:08:47.210Z,6.40
2023-05-17T20:11:14.356Z,6.30
2023-05-17T20:13:41.419Z,5.70
2023-05-17T20:16:15.060Z,6.00
2023-05-17T20:18:42.761Z,5.80
2023-05-17T20:21:11.651Z,5.90
2023-05-17T20:23:38.784Z,6.10
2023-05-17T20:26:07.235Z,6.30
2023-05-17T20:28:34.418Z,6.60
2023-05-17T20:31:01.605Z,6.20
2023-05-17T20:33:28.715Z,5.40
2023-05-17T20:35:55.931Z,5.50
2023-05-17T20:38:23.072Z,5.70
2023-05-17T20:40:52.133Z,5.70
2023-05-17T20:43:20.237Z,5.00
2023-05-17T20:45:50.155Z,4.90
2023-05-17T20:48:17.279Z,5.30
2023-05-17T20:50:45.200Z,4.90
2023-05-17T20:53:12.302Z,4.90
2023-05-17T20:55:39.556Z,5.10
2023-05-17T20:58:06.645Z,5.00
2023-05-17T21:00:33.730Z,5.10
2023-05-17T21:03:00.897Z,5.30
2023-05-17T21:05:28.650Z,5.30
2023-05-17T21:07:56.928Z,5.10
2023-05-17T21:10:24.507Z,4.80
2023-05-17T21:12:52.682Z,5.30
2023-05-17T21:15:19.962Z,5.20
2023-05-17T21:17:47.214Z,5.10
2023-05-17T21:20:14.503Z,5.50
2023-05-17T21:22:41.585Z,5.60
2023-05-17T21:25:09.077Z,5.30
2023-05-17T21:27:36.160Z,5.30
2023-05-17T21:30:05.071Z,5.30
2023-05-17T21:32:32.278Z,5.40
2023-05-17T21:34:59.843Z,5.60
2023-05-17T21:37:29.115Z,5.80
2023-05-17T21:39:56.508Z,5.60
2023-05-17T21:42:23.560Z,6.70
2023-05-17T21:44:51.270Z,6.30
2023-05-17T21:47:18.265Z,6.10
2023-05-17T21:49:45.318Z,6.20
2023-05-17T21:52:12.650Z,6.10
2023-05-17T21:54:41.542Z,5.90
2023-05-17T21:57:08.581Z,7.10
2023-05-17T21:59:35.693Z,6.50
2023-05-17T22:02:02.809Z,6.30
2023-05-17T22:04:29.885Z,6.40
2023-05-17T22:06:57.037Z,6.20
2023-05-17T22:09:24.165Z,6.20
2023-05-17T22:11:51.292Z,6.20
2023-05-17T22:14:18.323Z,6.10
2023-05-17T22:16:45.387Z,6.30
2023-05-17T22:19:12.492Z,6.20
2023-05-17T22:21:39.511Z,6.30
2023-05-17T22:24:07.033Z,6.20
2023-05-17T22:26:34.128Z,7.20
2023-05-17T22:29:01.426Z,6.20
2023-05-17T22:31:28.673Z,6.80
2023-05-17T22:33:55.782Z,5.70
2023-05-17T22:36:25.132Z,6.10
2023-05-17T22:38:52.373Z,6.40
2023-05-17T22:41:19.902Z,5.90
2023-05-17T22:43:46.986Z,5.40
2023-05-17T22:46:16.218Z,5.40
2023-05-17T22:48:43.307Z,6.10
2023-05-17T22:51:10.335Z,6.00
2023-05-17T22:53:37.385Z,6.00
2023-05-17T22:56:04.649Z,5.90
2023-05-17T22:58:31.788Z,5.40
2023-05-17T23:00:58.833Z,5.50
2023-05-17T23:03:25.989Z,6.10
2023-05-17T23:06:02.464Z,6.20
2023-05-17T23:08:30.360Z,6.80
2023-05-17T23:10:58.931Z,6.90
2023-05-17T23:13:26.468Z,6.60
2023-05-17T23:15:53.964Z,6.00
2023-05-17T23:18:21.313Z,5.80
2023-05-17T23:20:49.209Z,6.10
2023-05-17T23:23:16.479Z,5.80
2023-05-17T23:25:48.618Z,6.30
2023-05-17T23:28:16.014Z,5.80
2023-05-17T23:30:44.797Z,6.10
2023-05-17T23:33:11.855Z,6.50
2023-05-17T23:35:38.924Z,6.40
2023-05-17T23:38:07.416Z,6.80
2023-05-17T23:40:39.705Z,6.70
2023-05-17T23:43:08.865Z,6.70
2023-05-17T23:45:35.980Z,7.00
2023-05-17T23:48:03.547Z,6.60
2023-05-17T23:50:30.747Z,6.50
2023-05-17T23:52:57.737Z,7.20
2023-05-17T23:55:24.766Z,7.20
2023-05-17T23:57:52.047Z,7.20
